43TX weather

Mid-Valley Dusters Inc Airport
Alamo, Texas, United States

Public forecast

Using degrees Fahrenheit for public forecast. Weather courtesy of forecast.io.

Closest aviation weather report (METAR) to Mid-Valley Dusters Inc Airport

Closest report is Mc Allen Miller International Airport, 5.7 nm (10.6 km) WNW. Retrieved 2019/10/23 10:53 UTC (33 minutes ago):

KMFE 231053Z 00000KT 10SM CLR 17/15 A3004 RMK AO2 SLP169 T01720150

Closest aviation forecast (TAF) to Mid-Valley Dusters Inc Airport

Closest forecast is Mc Allen Miller International Airport, 5.7 nm (10.6 km) WNW. Retrieved 2019/10/23 06:22 UTC (5 hours ago):

TAF KMFE 230520Z 2306/2406 VRB04KT P6SM SKC FM231600 13012KT P6SM FEW050 FEW250 FM240000 12010KT P6SM SCT045 BKN100